Time;durP1;ratioP1;P1;durP2;ratioP2;P2;SDS_P1;SDS_P2;PMS_P1;PMS_P2;Temp;Humidity;BMP_temperature;BMP_pressure;BME280_temperature;BME280_humidity;BME280_pressure;Samples;Min_cycle;Max_cycle;Signal;HPM_P1;HPM_P2
2024/01/10 00:00:37;;;;;;;8.10;3.00;;;-4.60;89.20;;;;;;5017579;28;21203;-64
2024/01/10 00:03:03;;;;;;;6.90;3.05;;;-4.60;88.10;;;;;;5019398;28;20029;-63
2024/01/10 00:05:28;;;;;;;7.78;2.78;;;-4.50;87.30;;;;;;5015920;28;20040;-64
2024/01/10 00:07:54;;;;;;;8.60;3.45;;;-4.40;86.80;;;;;;5016075;28;20034;-63
2024/01/10 00:10:21;;;;;;;6.45;3.08;;;-4.40;86.70;;;;;;5013921;28;20033;-63
2024/01/10 00:12:47;;;;;;;9.30;2.45;;;-4.30;86.80;;;;;;5015617;28;20026;-64
2024/01/10 00:15:13;;;;;;;6.47;2.88;;;-4.30;86.90;;;;;;5021402;28;20021;-63
2024/01/10 00:17:40;;;;;;;9.45;2.72;;;-4.30;87.20;;;;;;5018279;28;20472;-64
2024/01/10 00:20:07;;;;;;;10.60;3.70;;;-4.40;90.90;;;;;;5017054;28;20034;-63
2024/01/10 00:22:33;;;;;;;7.38;2.92;;;-4.50;91.40;;;;;;5018107;28;20061;-62
2024/01/10 00:24:58;;;;;;;7.78;2.85;;;-4.60;90.60;;;;;;5013597;28;20049;-63
2024/01/10 00:27:24;;;;;;;12.38;3.00;;;-4.70;89.20;;;;;;5021167;28;20017;-64
2024/01/10 00:29:51;;;;;;;9.45;3.20;;;-4.70;88.60;;;;;;5016015;28;20069;-64
2024/01/10 00:32:17;;;;;;;8.18;3.05;;;-4.70;91.10;;;;;;5019367;28;20029;-64
2024/01/10 00:34:42;;;;;;;7.50;3.08;;;-4.80;91.20;;;;;;5010966;28;20022;-63
2024/01/10 00:37:08;;;;;;;9.68;3.45;;;-4.90;90.80;;;;;;5021458;28;21329;-63
2024/01/10 00:39:34;;;;;;;8.00;3.25;;;-4.90;90.20;;;;;;5016317;28;20052;-64
2024/01/10 00:41:59;;;;;;;13.02;3.78;;;-4.80;90.70;;;;;;5019884;28;20034;-62
2024/01/10 00:44:25;;;;;;;8.02;2.95;;;-4.80;90.40;;;;;;5020663;28;20028;-63
2024/01/10 00:46:50;;;;;;;5.65;3.08;;;-4.90;91.20;;;;;;5013157;28;20053;-63
2024/01/10 00:49:16;;;;;;;8.23;3.25;;;-4.90;90.80;;;;;;5012508;28;20037;-67
2024/01/10 00:51:41;;;;;;;9.25;3.90;;;-4.90;91.10;;;;;;5015073;28;20030;-63
2024/01/10 00:54:07;;;;;;;8.73;3.47;;;-5.00;90.40;;;;;;5012410;28;20156;-63
2024/01/10 00:56:33;;;;;;;9.85;3.03;;;-4.90;91.10;;;;;;5016279;28;20029;-64
2024/01/10 00:58:58;;;;;;;8.25;3.47;;;-4.90;90.50;;;;;;5022802;28;20407;-63
2024/01/10 01:01:24;;;;;;;9.05;3.20;;;-5.00;90.60;;;;;;5023746;28;20029;-63
2024/01/10 01:03:50;;;;;;;9.10;3.53;;;-5.10;91.40;;;;;;5015575;28;20053;-57
2024/01/10 01:06:16;;;;;;;7.82;2.70;;;-5.10;91.80;;;;;;5015302;28;20025;-64
2024/01/10 01:08:41;;;;;;;8.93;3.65;;;-5.10;92.40;;;;;;5014258;28;20439;-64
2024/01/10 01:11:07;;;;;;;5.72;2.72;;;-5.10;91.20;;;;;;5013597;28;20021;-63
2024/01/10 01:13:33;;;;;;;10.38;3.72;;;-5.00;91.00;;;;;;5022810;28;20148;-64
2024/01/10 01:15:58;;;;;;;10.43;2.90;;;-5.00;91.30;;;;;;5015674;28;20032;-64
2024/01/10 01:18:24;;;;;;;9.80;4.22;;;-4.80;90.50;;;;;;5020807;28;20526;-64
2024/01/10 01:20:50;;;;;;;8.57;3.10;;;-4.60;89.80;;;;;;5019379;28;20030;-63
2024/01/10 01:23:16;;;;;;;13.40;3.88;;;-4.40;89.70;;;;;;5011203;28;20022;-64
2024/01/10 01:25:41;;;;;;;9.70;4.35;;;-4.40;89.00;;;;;;5013442;28;20417;-63
2024/01/10 01:28:08;;;;;;;11.68;4.05;;;-4.30;89.30;;;;;;5010654;28;20033;-63
2024/01/10 01:30:33;;;;;;;9.48;3.17;;;-4.30;88.70;;;;;;5013024;28;20134;-62
2024/01/10 01:32:59;;;;;;;8.27;3.65;;;-4.20;88.40;;;;;;5014819;28;20501;-63
2024/01/10 01:35:24;;;;;;;10.88;3.83;;;-4.20;88.50;;;;;;5014252;28;20018;-63
2024/01/10 01:37:51;;;;;;;12.35;3.97;;;-4.20;89.00;;;;;;5012377;28;20140;-64
2024/01/10 01:40:18;;;;;;;8.07;3.15;;;-4.30;89.90;;;;;;5014128;28;20072;-64
2024/01/10 01:42:45;;;;;;;11.30;5.03;;;-4.40;90.30;;;;;;5024682;28;20105;-64
2024/01/10 01:45:11;;;;;;;14.20;3.92;;;-4.60;91.20;;;;;;5015669;28;20047;-64
2024/01/10 01:47:37;;;;;;;8.77;4.53;;;-4.60;91.00;;;;;;5015317;28;20516;-64
2024/01/10 01:50:03;;;;;;;10.60;3.42;;;-4.80;91.80;;;;;;5015783;28;20402;-64
2024/01/10 01:52:31;;;;;;;13.15;4.60;;;-4.90;94.40;;;;;;5015119;28;20018;-65
2024/01/10 01:54:56;;;;;;;6.38;3.13;;;-5.00;94.10;;;;;;5016726;28;20635;-66
2024/01/10 01:57:22;;;;;;;9.63;3.22;;;-5.10;94.20;;;;;;5012376;28;20018;-65
2024/01/10 01:59:48;;;;;;;8.88;3.33;;;-5.20;93.50;;;;;;5024704;28;20036;-66
2024/01/10 02:02:16;;;;;;;13.18;3.35;;;-5.20;93.50;;;;;;5016592;28;20120;-65
2024/01/10 02:04:42;;;;;;;9.45;3.33;;;-5.30;93.90;;;;;;5023903;28;20026;-66
2024/01/10 02:07:08;;;;;;;9.65;3.47;;;-5.30;94.80;;;;;;5013976;28;20081;-65
2024/01/10 02:09:33;;;;;;;8.93;3.17;;;-5.40;95.50;;;;;;5013544;28;20073;-66
2024/01/10 02:11:59;;;;;;;10.93;3.58;;;-5.40;95.60;;;;;;5012552;28;20029;-65
2024/01/10 02:14:24;;;;;;;8.85;3.08;;;-5.50;96.00;;;;;;5014812;28;20072;-65
2024/01/10 02:16:50;;;;;;;6.93;3.33;;;-5.60;96.30;;;;;;5012197;28;20036;-65
2024/01/10 02:19:23;;;;;;;9.90;3.50;;;-5.50;95.50;;;;;;5015962;28;20426;-65
2024/01/10 02:21:49;;;;;;;8.65;3.85;;;-5.60;95.10;;;;;;5016058;28;20083;-62
2024/01/10 02:24:14;;;;;;;11.18;2.78;;;-5.70;95.50;;;;;;5000443;28;20507;-62
2024/01/10 02:26:40;;;;;;;9.10;3.20;;;-5.70;96.30;;;;;;5012191;28;20034;-64
2024/01/10 02:29:06;;;;;;;6.85;3.72;;;-5.80;96.30;;;;;;5011685;28;20419;-63
2024/01/10 02:31:31;;;;;;;11.90;3.90;;;-5.90;97.10;;;;;;5011057;28;20032;-63
2024/01/10 02:33:57;;;;;;;13.70;3.38;;;-5.90;97.70;;;;;;5010930;28;20112;-64
2024/01/10 02:36:22;;;;;;;9.73;3.92;;;-6.00;97.50;;;;;;5010920;28;20373;-64
2024/01/10 02:38:48;;;;;;;10.60;3.67;;;-5.90;97.40;;;;;;5017521;28;20052;-63
2024/01/10 02:41:13;;;;;;;12.23;4.00;;;-5.90;97.90;;;;;;5017370;28;20069;-63
2024/01/10 02:43:39;;;;;;;6.60;2.92;;;-5.90;98.00;;;;;;5013499;28;20034;-64
2024/01/10 02:46:04;;;;;;;9.32;3.55;;;-6.00;98.00;;;;;;5018287;28;20026;-63
2024/01/10 02:48:30;;;;;;;7.05;3.15;;;-5.90;97.10;;;;;;5018863;28;20022;-65
2024/01/10 02:50:56;;;;;;;14.13;3.83;;;-5.80;95.60;;;;;;5018965;28;20031;-66
2024/01/10 02:53:21;;;;;;;8.18;3.67;;;-5.80;95.70;;;;;;5018343;28;20046;-66
2024/01/10 02:55:49;;;;;;;7.60;3.05;;;-5.80;96.20;;;;;;5014955;28;20041;-65
2024/01/10 02:58:14;;;;;;;8.77;3.40;;;-5.80;97.50;;;;;;5015611;28;21451;-65
2024/01/10 03:00:40;;;;;;;9.15;3.22;;;-5.80;98.40;;;;;;5015313;28;20099;-66
2024/01/10 03:03:05;;;;;;;9.43;3.45;;;-5.80;98.60;;;;;;5018110;28;20749;-66
2024/01/10 03:05:31;;;;;;;12.10;3.67;;;-5.90;98.80;;;;;;5017642;28;20432;-66
2024/01/10 03:07:57;;;;;;;8.73;3.33;;;-5.90;99.70;;;;;;5014414;28;20403;-66
2024/01/10 03:10:22;;;;;;;8.60;3.00;;;-5.90;99.50;;;;;;5015878;28;20036;-65
2024/01/10 03:12:48;;;;;;;6.77;3.97;;;-5.90;99.60;;;;;;5024119;28;20108;-65
2024/01/10 03:15:14;;;;;;;7.38;2.88;;;-6.00;99.90;;;;;;5018386;28;20041;-66
2024/01/10 03:17:39;;;;;;;12.47;4.30;;;-6.00;99.90;;;;;;5019397;28;20040;-66
2024/01/10 03:20:06;;;;;;;8.30;3.50;;;-6.10;99.90;;;;;;5028687;28;20029;-65
2024/01/10 03:22:33;;;;;;;9.18;3.50;;;-6.00;99.90;;;;;;5020476;28;20034;-65
2024/01/10 03:24:58;;;;;;;12.88;4.05;;;-6.00;99.90;;;;;;5015120;28;20087;-65
2024/01/10 03:27:24;;;;;;;10.77;3.42;;;-6.00;99.90;;;;;;5014180;28;20034;-66
2024/01/10 03:29:49;;;;;;;7.28;3.80;;;-6.00;99.90;;;;;;5017324;28;20041;-66
2024/01/10 03:32:15;;;;;;;10.10;3.90;;;-5.90;99.10;;;;;;5016897;28;20704;-66
2024/01/10 03:34:42;;;;;;;8.95;3.20;;;-5.90;99.00;;;;;;5026155;28;20140;-65
2024/01/10 03:37:08;;;;;;;11.18;4.07;;;-5.90;98.90;;;;;;5016426;28;20022;-66
2024/01/10 03:39:33;;;;;;;11.30;4.70;;;-5.90;98.60;;;;;;5016209;28;20056;-63
2024/01/10 03:41:59;;;;;;;10.27;3.45;;;-5.90;99.90;;;;;;5014644;28;20026;-64
2024/01/10 03:44:26;;;;;;;13.05;4.05;;;-6.00;99.90;;;;;;5015268;28;20391;-64
2024/01/10 03:46:52;;;;;;;15.52;3.20;;;-6.00;99.90;;;;;;5013044;28;20117;-64
2024/01/10 03:49:17;;;;;;;9.38;3.95;;;-6.10;99.90;;;;;;5020113;28;20147;-63
2024/01/10 03:51:43;;;;;;;10.77;3.67;;;-6.10;99.90;;;;;;5013195;28;20563;-63
2024/01/10 03:54:08;;;;;;;6.33;3.83;;;-6.20;99.90;;;;;;5012668;28;20017;-65
2024/01/10 03:56:34;;;;;;;10.37;3.73;;;-6.20;99.90;;;;;;5017720;28;20528;-65
2024/01/10 03:59:01;;;;;;;10.60;4.17;;;-6.20;99.90;;;;;;5018083;28;20038;-65
2024/01/10 04:01:26;;;;;;;8.80;3.67;;;-6.30;99.90;;;;;;5015264;28;20038;-65
2024/01/10 04:03:52;;;;;;;9.33;3.57;;;-6.30;99.90;;;;;;5012733;28;20048;-65
2024/01/10 04:06:18;;;;;;;11.33;3.80;;;-6.30;99.90;;;;;;5016198;28;20038;-65
2024/01/10 04:08:43;;;;;;;10.10;3.83;;;-6.30;99.90;;;;;;5020516;28;20373;-65
2024/01/10 04:11:09;;;;;;;13.03;3.40;;;-6.30;99.90;;;;;;5015106;28;20037;-65
2024/01/10 04:13:35;;;;;;;10.63;3.70;;;-6.30;99.90;;;;;;5020617;28;20551;-66
2024/01/10 04:16:01;;;;;;;10.50;3.88;;;-6.40;99.90;;;;;;5015250;28;20083;-65
2024/01/10 04:18:26;;;;;;;9.50;3.30;;;-6.40;99.90;;;;;;5017696;28;20056;-67
2024/01/10 04:20:52;;;;;;;8.03;3.70;;;-6.40;99.90;;;;;;5013881;28;20041;-65
2024/01/10 04:23:17;;;;;;;11.20;3.97;;;-6.50;99.90;;;;;;5005187;28;20022;-64
2024/01/10 04:25:43;;;;;;;8.53;3.57;;;-6.50;99.90;;;;;;5031391;28;20025;-65
2024/01/10 04:28:09;;;;;;;11.70;4.40;;;-6.60;99.90;;;;;;5034275;28;20056;-64
2024/01/10 04:30:34;;;;;;;17.33;3.47;;;-6.60;99.90;;;;;;5025698;28;20037;-64
2024/01/10 04:33:00;;;;;;;13.32;3.72;;;-6.60;99.90;;;;;;5026689;28;20368;-64
2024/01/10 04:35:25;;;;;;;8.07;3.23;;;-6.60;99.90;;;;;;5021888;28;20045;-62
2024/01/10 04:37:51;;;;;;;9.13;3.80;;;-6.60;99.90;;;;;;5029547;28;20111;-64
2024/01/10 04:40:17;;;;;;;12.67;3.17;;;-6.60;99.90;;;;;;5028866;28;20045;-65
2024/01/10 04:42:42;;;;;;;10.57;4.23;;;-6.50;99.90;;;;;;5030153;28;20083;-64
2024/01/10 04:45:08;;;;;;;7.90;3.13;;;-6.50;99.90;;;;;;5027535;28;20414;-64
2024/01/10 04:47:34;;;;;;;8.30;4.03;;;-6.40;99.90;;;;;;5024525;28;20030;-64
2024/01/10 04:50:00;;;;;;;12.97;3.27;;;-6.40;99.90;;;;;;5030566;28;20487;-63
2024/01/10 04:52:25;;;;;;;12.13;3.23;;;-6.40;99.90;;;;;;5027996;28;20547;-64
2024/01/10 04:54:51;;;;;;;7.90;3.27;;;-6.40;99.90;;;;;;5023012;28;20026;-62
2024/01/10 04:57:16;;;;;;;7.63;3.43;;;-6.40;99.90;;;;;;5012657;28;20022;-63
2024/01/10 04:59:42;;;;;;;9.23;3.30;;;-6.40;99.90;;;;;;4991241;28;20471;-62
2024/01/10 05:02:08;;;;;;;6.93;3.50;;;-6.50;99.90;;;;;;5029789;28;20034;-62
2024/01/10 05:04:33;;;;;;;10.37;3.57;;;-6.60;99.90;;;;;;5029965;28;20068;-62
2024/01/10 05:06:59;;;;;;;9.47;3.60;;;-6.60;99.90;;;;;;5029646;28;20036;-62
2024/01/10 05:09:24;;;;;;;6.80;3.33;;;-6.70;99.90;;;;;;5029650;28;20029;-62
2024/01/10 05:11:52;;;;;;;11.70;3.57;;;-6.70;99.90;;;;;;5030058;28;20131;-63
2024/01/10 05:14:21;;;;;;;13.67;4.07;;;-6.70;99.90;;;;;;5029577;28;20100;-62
2024/01/10 05:16:47;;;;;;;13.30;4.57;;;-6.80;99.90;;;;;;5029882;28;20091;-62
2024/01/10 05:19:13;;;;;;;10.00;3.90;;;-6.80;99.90;;;;;;5029173;28;20029;-61
2024/01/10 05:21:39;;;;;;;9.70;3.30;;;-6.80;99.90;;;;;;5028385;28;20091;-66
2024/01/10 05:24:05;;;;;;;8.97;3.37;;;-6.80;99.90;;;;;;5024237;28;20395;-66
2024/01/10 05:26:31;;;;;;;12.83;3.77;;;-6.80;99.90;;;;;;5015649;28;20453;-65
2024/01/10 05:28:57;;;;;;;11.90;3.73;;;-6.70;99.90;;;;;;5022976;28;20037;-67
2024/01/10 05:31:22;;;;;;;10.90;4.77;;;-6.60;99.90;;;;;;5017083;28;20112;-66
2024/01/10 05:33:48;;;;;;;21.07;7.13;;;-6.50;99.90;;;;;;5027198;28;20045;-66
2024/01/10 05:36:14;;;;;;;12.57;4.53;;;-6.50;99.90;;;;;;5029363;28;20392;-65
2024/01/10 05:38:42;;;;;;;13.13;4.73;;;-6.40;99.90;;;;;;5024551;28;20170;-65
2024/01/10 05:41:08;;;;;;;10.20;3.17;;;-6.50;99.90;;;;;;5026341;28;20057;-65
2024/01/10 05:43:33;;;;;;;9.47;4.37;;;-6.50;99.90;;;;;;5025847;28;20025;-65
2024/01/10 05:45:59;;;;;;;9.77;3.10;;;-6.50;99.90;;;;;;5020341;28;20475;-65
2024/01/10 05:48:25;;;;;;;11.23;4.07;;;-6.50;99.90;;;;;;5021078;28;20034;-63
2024/01/10 05:50:51;;;;;;;11.77;4.80;;;-6.50;99.90;;;;;;5029536;28;20029;-62
2024/01/10 05:53:17;;;;;;;11.60;4.90;;;-6.50;99.90;;;;;;5024755;28;20797;-64
2024/01/10 05:55:43;;;;;;;8.67;3.97;;;-6.50;99.90;;;;;;5021540;28;20036;-63
2024/01/10 05:58:10;;;;;;;15.20;3.60;;;-6.60;99.90;;;;;;5027320;28;20028;-63
2024/01/10 06:00:35;;;;;;;9.03;3.93;;;-6.60;99.90;;;;;;5027348;28;20099;-63
2024/01/10 06:03:01;;;;;;;9.50;4.07;;;-6.60;99.90;;;;;;5026810;28;20499;-63
2024/01/10 06:05:27;;;;;;;14.43;4.07;;;-6.60;99.90;;;;;;5027954;28;20038;-63
2024/01/10 06:07:52;;;;;;;15.90;5.10;;;-6.50;99.90;;;;;;5026275;28;20061;-64
2024/01/10 06:10:18;;;;;;;10.97;4.17;;;-6.50;99.90;;;;;;5026553;28;20056;-65
2024/01/10 06:12:43;;;;;;;12.40;4.97;;;-6.50;99.90;;;;;;5032804;28;20017;-65
2024/01/10 06:15:09;;;;;;;11.27;4.57;;;-6.40;99.90;;;;;;5033657;28;20021;-65
2024/01/10 06:17:35;;;;;;;12.00;4.27;;;-6.40;99.90;;;;;;5032493;28;20018;-65
2024/01/10 06:20:01;;;;;;;12.70;4.73;;;-6.30;99.90;;;;;;5030148;28;20021;-65
2024/01/10 06:22:26;;;;;;;9.27;4.63;;;-6.30;99.90;;;;;;5022299;28;21153;-65
2024/01/10 06:24:52;;;;;;;12.77;4.20;;;-6.20;99.90;;;;;;5031092;28;20029;-65
2024/01/10 06:27:18;;;;;;;11.07;5.10;;;-6.20;99.90;;;;;;5030231;28;20029;-63
2024/01/10 06:29:44;;;;;;;15.27;5.90;;;-6.20;99.90;;;;;;5035657;28;20099;-66
2024/01/10 06:32:11;;;;;;;10.53;4.70;;;-6.20;99.90;;;;;;5022271;28;20024;-65
2024/01/10 06:34:36;;;;;;;7.97;3.43;;;-6.20;99.90;;;;;;5025380;28;20026;-65
2024/01/10 06:37:02;;;;;;;9.53;3.57;;;-6.20;99.90;;;;;;5030935;28;20025;-64
2024/01/10 06:39:27;;;;;;;8.93;3.93;;;-6.20;99.90;;;;;;5027326;28;20037;-65
2024/01/10 06:41:53;;;;;;;11.90;5.30;;;-6.20;99.90;;;;;;5030490;28;20036;-65
2024/01/10 06:44:19;;;;;;;15.97;6.87;;;-6.20;99.90;;;;;;5029636;28;20049;-65
2024/01/10 06:46:45;;;;;;;14.00;5.17;;;-6.20;99.90;;;;;;5029923;28;20021;-65
2024/01/10 06:49:11;;;;;;;9.50;4.37;;;-6.30;99.90;;;;;;5026184;28;20033;-64
2024/01/10 06:51:37;;;;;;;10.63;3.80;;;-6.40;99.90;;;;;;5032121;28;20021;-65
2024/01/10 06:54:03;;;;;;;7.47;2.83;;;-6.50;99.90;;;;;;5028882;28;20037;-65
2024/01/10 06:56:32;;;;;;;10.20;4.70;;;-6.40;99.90;;;;;;5026501;28;20048;-65
2024/01/10 06:59:01;;;;;;;15.73;5.13;;;-6.30;99.90;;;;;;5033148;28;20030;-65
2024/01/10 07:01:27;;;;;;;17.93;7.13;;;-6.10;99.90;;;;;;5032807;28;20033;-65
2024/01/10 07:03:56;;;;;;;19.73;7.03;;;-6.10;99.90;;;;;;5027971;28;20050;-65
2024/01/10 07:06:23;;;;;;;19.27;8.53;;;-6.10;99.90;;;;;;5032411;28;20025;-65
2024/01/10 07:08:51;;;;;;;18.73;6.20;;;-6.10;99.90;;;;;;5032123;28;20399;-64
2024/01/10 07:11:19;;;;;;;15.80;4.70;;;-6.10;99.90;;;;;;5027065;28;20117;-65
2024/01/10 07:13:45;;;;;;;9.47;3.53;;;-6.10;99.90;;;;;;5028233;28;20034;-65
2024/01/10 07:16:11;;;;;;;8.33;3.27;;;-6.10;99.90;;;;;;5015224;28;20132;-65
2024/01/10 07:18:37;;;;;;;9.73;3.77;;;-6.10;99.90;;;;;;5029616;28;20723;-64
2024/01/10 07:21:03;;;;;;;10.13;3.70;;;-6.10;99.90;;;;;;5020461;28;20036;-64
2024/01/10 07:23:28;;;;;;;19.00;5.33;;;-6.10;99.90;;;;;;5024314;28;20484;-63
2024/01/10 07:25:54;;;;;;;15.60;5.03;;;-6.00;99.90;;;;;;5031154;28;20044;-64
2024/01/10 07:28:20;;;;;;;13.27;5.10;;;-6.00;99.90;;;;;;5032842;28;20025;-64
2024/01/10 07:30:46;;;;;;;12.43;4.53;;;-6.00;99.90;;;;;;5023029;28;20033;-63
2024/01/10 07:33:12;;;;;;;15.93;5.23;;;-5.90;99.90;;;;;;5029100;28;20116;-64
2024/01/10 07:35:40;;;;;;;18.17;5.10;;;-5.90;99.90;;;;;;5030105;28;20025;-65
2024/01/10 07:38:09;;;;;;;15.65;5.05;;;-5.80;99.90;;;;;;5024387;28;20381;-63
2024/01/10 07:40:35;;;;;;;9.10;4.20;;;-5.80;99.90;;;;;;5026483;28;20041;-65
2024/01/10 07:43:01;;;;;;;16.97;6.27;;;-5.80;99.90;;;;;;5027420;28;20026;-65
2024/01/10 07:45:27;;;;;;;15.60;5.10;;;-5.80;99.90;;;;;;5031787;28;20149;-65
2024/01/10 07:47:52;;;;;;;15.07;4.97;;;-5.80;99.90;;;;;;5026646;28;20517;-64
2024/01/10 07:50:19;;;;;;;18.60;5.45;;;-5.80;99.90;;;;;;5011575;28;20033;-65
2024/01/10 07:52:46;;;;;;;24.37;6.00;;;-5.80;99.90;;;;;;5030647;28;20510;-65
2024/01/10 07:55:12;;;;;;;23.43;7.57;;;-5.80;99.90;;;;;;5025645;28;20029;-65
2024/01/10 07:57:38;;;;;;;18.08;5.97;;;-5.80;99.90;;;;;;5028942;28;20037;-65
2024/01/10 08:00:10;;;;;;;17.08;4.72;;;-5.80;99.90;;;;;;5026518;28;20403;-66
2024/01/10 08:02:36;;;;;;;9.18;4.40;;;-5.80;99.90;;;;;;5030862;28;20071;-64
2024/01/10 08:05:08;;;;;;;10.47;4.27;;;-5.70;99.90;;;;;;5026656;28;20033;-65
2024/01/10 08:07:34;;;;;;;8.17;4.37;;;-5.70;99.90;;;;;;5031393;28;20751;-65
2024/01/10 08:10:00;;;;;;;11.95;3.90;;;-5.60;99.90;;;;;;5031387;28;20385;-65
2024/01/10 08:12:26;;;;;;;13.55;3.75;;;-5.60;99.90;;;;;;5033286;28;20041;-65
2024/01/10 08:14:51;;;;;;;8.73;4.20;;;-5.60;99.90;;;;;;5029687;28;20535;-65
2024/01/10 08:17:17;;;;;;;11.45;4.28;;;-5.60;99.90;;;;;;5019873;28;20492;-64
2024/01/10 08:19:42;;;;;;;10.27;3.78;;;-5.60;99.90;;;;;;5023194;28;20079;-65
2024/01/10 08:22:08;;;;;;;13.20;4.35;;;-5.60;99.90;;;;;;5030340;28;20441;-66
2024/01/10 08:24:34;;;;;;;14.45;3.53;;;-5.60;99.90;;;;;;5029120;28;20030;-65
2024/01/10 08:26:59;;;;;;;10.35;4.85;;;-5.50;99.90;;;;;;5032626;28;20487;-65
2024/01/10 08:29:30;;;;;;;12.30;4.32;;;-5.50;99.90;;;;;;5028462;28;20395;-65
2024/01/10 08:31:56;;;;;;;11.82;4.72;;;-5.50;99.90;;;;;;5024793;28;20038;-66
2024/01/10 08:34:22;;;;;;;15.80;5.10;;;-5.40;99.90;;;;;;5024595;28;20021;-65
2024/01/10 08:36:50;;;;;;;13.40;5.88;;;-5.30;99.90;;;;;;5031172;28;20085;-66
2024/01/10 08:39:16;;;;;;;12.32;5.15;;;-5.30;99.90;;;;;;5027902;28;20057;-64
2024/01/10 08:41:44;;;;;;;12.15;4.75;;;-5.30;99.90;;;;;;5031663;28;20038;-66
2024/01/10 08:44:10;;;;;;;13.43;4.75;;;-5.30;99.90;;;;;;5025269;28;20099;-66
2024/01/10 08:46:35;;;;;;;13.82;5.22;;;-5.30;99.90;;;;;;5029152;28;20045;-65
2024/01/10 08:49:01;;;;;;;15.93;5.97;;;-5.30;99.90;;;;;;5022816;28;20065;-63
2024/01/10 08:51:27;;;;;;;14.75;5.80;;;-5.30;99.90;;;;;;5028062;28;20045;-65
2024/01/10 08:53:52;;;;;;;24.92;6.82;;;-5.30;99.90;;;;;;5026209;28;20044;-65
2024/01/10 08:56:19;;;;;;;15.75;6.47;;;-5.30;99.90;;;;;;5023395;28;20024;-66
2024/01/10 08:58:45;;;;;;;15.93;7.10;;;-5.20;99.90;;;;;;5027321;28;20037;-65
2024/01/10 09:01:11;;;;;;;16.73;7.25;;;-5.20;99.90;;;;;;5022661;28;20104;-66
2024/01/10 09:03:39;;;;;;;13.50;5.57;;;-5.20;99.90;;;;;;5021871;28;20033;-65
2024/01/10 09:06:07;;;;;;;17.98;6.80;;;-5.10;99.90;;;;;;5024540;28;20111;-65
2024/01/10 09:08:33;;;;;;;11.90;4.47;;;-5.10;99.90;;;;;;5028371;28;20033;-65
2024/01/10 09:10:59;;;;;;;11.75;5.47;;;-5.00;99.90;;;;;;5029629;28;20037;-64
2024/01/10 09:13:24;;;;;;;18.75;6.03;;;-5.00;99.90;;;;;;5025480;28;20109;-67
2024/01/10 09:15:50;;;;;;;14.20;6.00;;;-4.90;99.90;;;;;;5015705;28;20042;-65
2024/01/10 09:18:16;;;;;;;13.75;5.88;;;-4.80;99.90;;;;;;5024845;28;20022;-66
2024/01/10 09:20:42;;;;;;;11.82;5.38;;;-4.80;99.90;;;;;;5020433;28;20036;-64
2024/01/10 09:23:07;;;;;;;17.52;5.50;;;-4.60;99.90;;;;;;5029062;28;20052;-65
2024/01/10 09:25:33;;;;;;;19.40;6.72;;;-4.60;99.90;;;;;;5026569;28;20025;-66
2024/01/10 09:27:58;;;;;;;18.13;7.10;;;-4.50;99.90;;;;;;5025883;28;20487;-66
2024/01/10 09:30:24;;;;;;;19.05;7.00;;;-4.40;99.90;;;;;;5019054;28;20022;-65
2024/01/10 09:32:50;;;;;;;19.08;6.95;;;-4.30;99.90;;;;;;5025754;28;20041;-66
2024/01/10 09:35:16;;;;;;;16.20;6.72;;;-4.20;99.90;;;;;;5020458;28;20052;-66
2024/01/10 09:37:41;;;;;;;17.45;5.47;;;-4.20;99.90;;;;;;5027327;28;20525;-65
2024/01/10 09:40:08;;;;;;;13.90;6.03;;;-4.10;99.90;;;;;;5028317;28;20033;-64
2024/01/10 09:42:35;;;;;;;11.45;5.20;;;-4.10;99.90;;;;;;5026189;28;20399;-66
2024/01/10 09:45:02;;;;;;;14.77;7.55;;;-4.10;99.90;;;;;;5031274;28;20021;-66
2024/01/10 09:47:28;;;;;;;22.35;6.55;;;-4.10;99.90;;;;;;5032938;28;20040;-65
2024/01/10 09:49:54;;;;;;;18.52;7.22;;;-4.00;99.90;;;;;;5035766;28;20033;-65
2024/01/10 09:52:25;;;;;;;28.60;11.30;;;-4.00;99.90;;;;;;5031609;28;20104;-64
2024/01/10 09:54:58;;;;;;;19.85;9.13;;;-3.90;99.90;;;;;;5025486;28;20112;-65
2024/01/10 09:57:25;;;;;;;;;;;-3.90;99.90;;;;;;5030733;28;20033;-65
2024/01/10 09:59:51;;;;;;;15.05;6.35;;;-3.90;99.90;;;;;;5028716;28;19944;-65
2024/01/10 10:02:18;;;;;;;22.05;7.78;;;-3.90;99.90;;;;;;5030906;28;20021;-63
2024/01/10 10:04:59;;;;;;;19.23;7.13;;;-3.80;99.90;;;;;;5034517;28;20028;-64
2024/01/10 10:07:24;;;;;;;18.33;6.78;;;-3.80;99.90;;;;;;5030372;28;20484;-64
2024/01/10 10:09:53;;;;;;;20.45;8.43;;;-3.70;99.90;;;;;;5031472;28;20044;-66
2024/01/10 10:12:18;;;;;;;19.50;7.45;;;-3.70;99.90;;;;;;5025502;28;20032;-63
2024/01/10 10:14:44;;;;;;;15.85;6.85;;;-3.60;99.90;;;;;;5023241;28;20049;-66
2024/01/10 10:17:17;;;;;;;19.73;7.50;;;-3.50;99.90;;;;;;5014629;28;20049;-66
2024/01/10 10:19:44;;;;;;;17.13;7.72;;;-3.40;99.90;;;;;;5025942;28;20038;-66
2024/01/10 10:22:10;;;;;;;17.80;6.85;;;-3.30;99.90;;;;;;5031294;28;20480;-67
2024/01/10 10:24:36;;;;;;;24.05;9.20;;;-3.20;99.90;;;;;;5035766;28;20030;-67
2024/01/10 10:27:09;;;;;;;18.88;7.65;;;-3.20;99.70;;;;;;5032671;28;20040;-67
2024/01/10 10:29:36;;;;;;;19.45;7.50;;;-3.10;99.40;;;;;;5030760;28;20395;-66
2024/01/10 10:32:02;;;;;;;23.70;8.02;;;-3.10;99.60;;;;;;5034896;28;20476;-66
2024/01/10 10:34:30;;;;;;;19.40;7.85;;;-3.10;99.70;;;;;;5030165;28;20021;-66
2024/01/10 10:36:56;;;;;;;18.88;7.65;;;-3.00;99.70;;;;;;5033759;28;20496;-66
2024/01/10 10:39:22;;;;;;;22.25;8.10;;;-3.00;99.90;;;;;;5030052;28;20060;-66
2024/01/10 10:41:50;;;;;;;20.98;9.07;;;-3.00;99.80;;;;;;5016844;28;20030;-66
2024/01/10 10:44:21;;;;;;;19.25;8.00;;;-2.90;99.30;;;;;;5028820;28;20025;-66
2024/01/10 10:46:51;;;;;;;18.75;8.43;;;-2.80;99.50;;;;;;5033126;28;20479;-67
2024/01/10 10:49:18;;;;;;;18.90;7.45;;;-2.80;99.60;;;;;;5031735;28;20026;-66
2024/01/10 10:51:43;;;;;;;20.13;8.02;;;-2.80;99.20;;;;;;5033025;28;20475;-66
2024/01/10 10:54:09;;;;;;;24.35;7.82;;;-2.70;99.00;;;;;;5032821;28;20029;-66
2024/01/10 10:56:36;;;;;;;21.88;7.22;;;-2.60;99.00;;;;;;5030383;28;20032;-66
2024/01/10 10:59:04;;;;;;;20.15;7.43;;;-2.50;99.20;;;;;;5022861;28;20078;-67
2024/01/10 11:01:31;;;;;;;22.80;9.10;;;-2.40;98.60;;;;;;5030527;28;20021;-66
2024/01/10 11:03:58;;;;;;;21.00;9.18;;;-2.20;98.60;;;;;;5029963;28;20039;-66
2024/01/10 11:06:24;;;;;;;23.85;8.35;;;-2.10;97.80;;;;;;5025826;28;20045;-67
2024/01/10 11:08:56;;;;;;;20.27;8.20;;;-2.00;98.20;;;;;;5024261;28;20026;-69
2024/01/10 11:11:37;;;;;;;19.52;8.30;;;-1.90;97.40;;;;;;5027107;28;20029;-66
2024/01/10 11:14:13;;;;;;;18.60;7.63;;;-1.80;98.10;;;;;;5030791;28;20341;-67
2024/01/10 11:17:01;;;;;;;24.27;8.57;;;-1.70;97.80;;;;;;5021514;28;20239;-66
2024/01/10 11:20:05;;;;;;;22.08;8.23;;;-1.60;97.80;;;;;;5026046;28;20057;-67
2024/01/10 11:22:46;;;;;;;19.52;7.88;;;-1.50;97.20;;;;;;5018681;28;20037;-66
2024/01/10 11:25:12;;;;;;;17.63;8.00;;;-1.50;97.00;;;;;;5015692;28;20144;-67
2024/01/10 11:27:37;;;;;;;20.15;8.13;;;-1.40;97.20;;;;;;5024870;28;20104;-66
2024/01/10 11:30:05;;;;;;;21.27;10.40;;;-1.40;96.90;;;;;;5023121;28;20034;-66
2024/01/10 11:32:33;;;;;;;22.73;10.38;;;-1.40;97.10;;;;;;5022460;28;20044;-68
2024/01/10 11:35:00;;;;;;;20.45;9.18;;;-1.20;97.00;;;;;;5023505;28;20049;-68
2024/01/10 11:37:45;;;;;;;27.58;9.40;;;-1.20;96.80;;;;;;5019872;28;20099;-67
2024/01/10 11:40:12;;;;;;;19.55;8.60;;;-1.20;96.60;;;;;;5026609;28;20026;-67
2024/01/10 11:42:48;;;;;;;25.95;9.52;;;-1.20;96.70;;;;;;5024809;28;20014;-67
2024/01/10 11:45:36;;;;;;;18.75;8.18;;;-1.10;96.90;;;;;;5014406;28;20026;-67
2024/01/10 11:48:02;;;;;;;25.17;8.65;;;-1.00;97.10;;;;;;5016031;28;20053;-65
2024/01/10 11:50:31;;;;;;;18.90;8.15;;;-1.00;97.20;;;;;;5017941;28;20076;-65
2024/01/10 11:52:56;;;;;;;24.17;9.85;;;-0.80;96.40;;;;;;5029356;28;20026;-65
2024/01/10 11:55:47;;;;;;;24.50;8.68;;;-0.70;96.40;;;;;;5029268;28;20036;-65
2024/01/10 11:58:13;;;;;;;28.10;8.88;;;-0.50;95.70;;;;;;5028007;28;20025;-65
2024/01/10 12:00:40;;;;;;;20.30;8.63;;;-0.50;95.90;;;;;;5020672;28;20033;-64
2024/01/10 12:03:11;;;;;;;18.67;7.97;;;-0.40;96.40;;;;;;5020665;28;20351;-64
2024/01/10 12:05:36;;;;;;;20.85;8.27;;;-0.20;95.70;;;;;;5021638;28;20472;-65
2024/01/10 12:08:07;;;;;;;18.40;7.97;;;-0.20;95.80;;;;;;5020351;28;20095;-65
2024/01/10 12:10:36;;;;;;;24.77;9.23;;;-0.10;94.80;;;;;;5025000;28;20060;-65
2024/01/10 12:13:03;;;;;;;26.80;10.02;;;-0.10;94.80;;;;;;5023346;28;20029;-63
2024/01/10 12:15:29;;;;;;;22.02;8.70;;;0.00;95.10;;;;;;5025036;28;20033;-65
2024/01/10 12:17:55;;;;;;;19.80;9.07;;;0.20;94.70;;;;;;5014932;28;20041;-64
2024/01/10 12:20:21;;;;;;;19.63;7.95;;;0.20;94.70;;;;;;5014950;28;20038;-65
2024/01/10 12:22:47;;;;;;;23.73;7.90;;;0.30;95.10;;;;;;5030493;28;20056;-65
2024/01/10 12:25:12;;;;;;;32.78;11.88;;;0.20;94.70;;;;;;4996722;28;20045;-65
2024/01/10 12:27:38;;;;;;;21.13;8.05;;;0.20;94.90;;;;;;5026458;28;20506;-65
2024/01/10 12:30:05;;;;;;;33.75;12.50;;;0.10;94.90;;;;;;5017213;28;20116;-65
2024/01/10 12:32:31;;;;;;;22.17;8.55;;;0.10;94.70;;;;;;5018400;28;20030;-64
2024/01/10 12:35:04;;;;;;;20.80;9.07;;;0.20;95.30;;;;;;5022745;28;20060;-64
2024/01/10 12:37:31;;;;;;;18.23;7.72;;;0.30;94.80;;;;;;5025547;28;20028;-65